Wetterdaten: Woche 17.08.15 - 23.08.15 (KW34)
Datum Zeit Temp. A. Feuchte A. Luftdruck Regen Wind Richtung Sonnenschein ET UV Solar Taupunkt Windchill Windben Empfang
17.08.2015 00:00 16,5 C 84 % 1010,2 hPa 0,0 l/m 0,9 km/h (0 Bft) W-SW 0,00 h 0,000 mm 0,0 UV-I 0 W/m 13,8 C 16,5 C 2,3 km/h (1 Bft) 0,00 %
17.08.2015 01:00 16,3 C 86 % 1010,0 hPa 0,0 l/m 0,1 km/h (0 Bft) N 0,00 h 0,000 mm 0,0 UV-I 0 W/m 13,9 C 16,3 C 0,7 km/h (0 Bft) 0,00 %
17.08.2015 02:00 16,2 C 87 % 1009,9 hPa 0,0 l/m 0,0 km/h (0 Bft) N 0,00 h 0,000 mm 0,0 UV-I 0 W/m 14,0 C 16,2 C 0,0 km/h (0 Bft) 0,00 %
17.08.2015 03:00 16,2 C 88 % 1010,0 hPa 0,3 l/m 1,1 km/h (0 Bft) W-SW 0,00 h 0,000 mm 0,0 UV-I 0 W/m 14,3 C 16,2 C 3,0 km/h (1 Bft) 0,00 %
17.08.2015 04:00 15,5 C 95 % 1009,7 hPa 0,9 l/m 1,3 km/h (1 Bft) W-SW 0,00 h 0,000 mm 0,0 UV-I 0 W/m 14,8 C 15,5 C 3,3 km/h (1 Bft) 0,00 %
17.08.2015 05:00 15,3 C 98 % 1009,3 hPa 0,6 l/m 3,4 km/h (1 Bft) W-NW 0,00 h 0,000 mm 0,0 UV-I 0 W/m 14,9 C 15,2 C 5,3 km/h (1 Bft) 0,00 %
17.08.2015 06:00 15,2 C 98 % 1009,5 hPa 2,1 l/m 3,6 km/h (1 Bft) W-NW 0,00 h 0,000 mm 0,0 UV-I 2 W/m 14,8 C 14,9 C 6,3 km/h (2 Bft) 0,00 %
17.08.2015 07:00 14,9 C 98 % 1009,6 hPa 2,7 l/m 4,8 km/h (1 Bft) W-SW 0,00 h 0,000 mm 0,0 UV-I 22 W/m 14,6 C 14,5 C 6,6 km/h (2 Bft) 0,00 %
17.08.2015 08:00 15,0 C 98 % 1009,4 hPa 2,4 l/m 4,8 km/h (1 Bft) W-SW 0,00 h 0,000 mm 1,0 UV-I 87 W/m 14,7 C 14,7 C 7,3 km/h (2 Bft) 0,00 %
17.08.2015 09:00 15,0 C 97 % 1009,5 hPa 0,9 l/m 4,9 km/h (1 Bft) W-SW 0,00 h 0,000 mm 1,0 UV-I 156 W/m 14,6 C 14,4 C 7,9 km/h (2 Bft) 0,00 %
17.08.2015 10:00 15,1 C 93 % 1009,7 hPa 0,0 l/m 6,0 km/h (2 Bft) W-SW 0,00 h 0,000 mm 1,0 UV-I 202 W/m 13,9 C 14,3 C 9,6 km/h (2 Bft) 0,00 %
17.08.2015 11:00 15,2 C 89 % 1010,0 hPa 0,0 l/m 3,9 km/h (1 Bft) W-SW 0,00 h 0,000 mm 1,0 UV-I 204 W/m 13,3 C 14,9 C 6,9 km/h (2 Bft) 0,00 %
17.08.2015 12:00 15,8 C 88 % 1010,1 hPa 0,0 l/m 2,8 km/h (1 Bft) W-SW 0,00 h 0,000 mm 1,2 UV-I 261 W/m 13,7 C 15,6 C 5,0 km/h (1 Bft) 0,00 %
17.08.2015 13:00 16,0 C 87 % 1010,1 hPa 0,0 l/m 1,4 km/h (1 Bft) W-SW 0,00 h 0,000 mm 1,1 UV-I 200 W/m 13,9 C 16,0 C 2,5 km/h (1 Bft) 0,00 %
17.08.2015 14:00 16,4 C 81 % 1010,1 hPa 0,0 l/m 2,6 km/h (1 Bft) W-SW 0,00 h 0,000 mm 1,0 UV-I 261 W/m 13,2 C 16,3 C 5,3 km/h (1 Bft) 0,00 %
17.08.2015 15:00 17,3 C 77 % 1010,2 hPa 0,0 l/m 2,1 km/h (1 Bft) W-SW 0,00 h 0,000 mm 1,2 UV-I 265 W/m 13,2 C 17,3 C 4,3 km/h (1 Bft) 0,00 %
17.08.2015 16:00 17,3 C 78 % 1010,3 hPa 0,0 l/m 1,8 km/h (1 Bft) W-SW 0,00 h 0,000 mm 1,0 UV-I 205 W/m 13,5 C 17,3 C 4,0 km/h (1 Bft) 0,00 %
17.08.2015 17:00 17,1 C 77 % 1010,4 hPa 0,0 l/m 1,4 km/h (1 Bft) W-SW 0,08 h 0,000 mm 1,0 UV-I 162 W/m 13,0 C 17,1 C 2,7 km/h (1 Bft) 0,00 %
17.08.2015 18:00 16,6 C 79 % 1010,9 hPa 0,0 l/m 1,5 km/h (1 Bft) W-SW 0,00 h 0,000 mm 1,0 UV-I 63 W/m 12,9 C 16,4 C 2,7 km/h (1 Bft) 0,00 %
17.08.2015 19:00 16,3 C 79 % 1011,5 hPa 0,0 l/m 0,4 km/h (0 Bft) W 0,00 h 0,000 mm 0,0 UV-I 13 W/m 12,7 C 16,3 C 1,0 km/h (0 Bft) 0,00 %
17.08.2015 20:00 15,9 C 82 % 1011,8 hPa 0,0 l/m 1,4 km/h (1 Bft) W 0,00 h 0,000 mm 0,0 UV-I 0 W/m 12,8 C 15,9 C 4,0 km/h (1 Bft) 0,00 %
17.08.2015 21:00 15,7 C 83 % 1012,4 hPa 0,0 l/m 1,2 km/h (1 Bft) W-SW 0,00 h 0,000 mm 0,0 UV-I 0 W/m 12,8 C 15,7 C 3,0 km/h (1 Bft) 0,00 %
17.08.2015 22:00 15,4 C 86 % 1012,6 hPa 0,0 l/m 0,7 km/h (0 Bft) O 0,00 h 0,000 mm 0,0 UV-I 0 W/m 13,0 C 15,4 C 1,7 km/h (1 Bft) 0,00 %
17.08.2015 23:00 15,1 C 86 % 1012,9 hPa 0,0 l/m 1,6 km/h (1 Bft) W-SW 0,00 h 0,000 mm 0,0 UV-I 0 W/m 12,8 C 15,1 C 3,3 km/h (1 Bft) 0,00 %
18.08.2015 00:00 14,9 C 86 % 1013,1 hPa 0,0 l/m 1,4 km/h (1 Bft) W-SW 0,00 h 0,000 mm 0,0 UV-I 0 W/m 12,6 C 14,9 C 2,6 km/h (1 Bft) 0,00 %
18.08.2015 01:00 14,8 C 87 % 1013,1 hPa 0,0 l/m 0,1 km/h (0 Bft) W-SW 0,00 h 0,000 mm 0,0 UV-I 0 W/m 12,8 C 14,8 C 0,3 km/h (0 Bft) 0,00 %
18.08.2015 02:00 14,6 C 89 % 1013,3 hPa 0,0 l/m 1,3 km/h (1 Bft) W-NW 0,00 h 0,000 mm 0,0 UV-I 0 W/m 12,9 C 14,6 C 3,3 km/h (1 Bft) 0,00 %
18.08.2015 03:00 14,2 C 90 % 1013,3 hPa 0,0 l/m 0,2 km/h (0 Bft) NW 0,00 h 0,000 mm 0,0 UV-I 0 W/m 12,6 C 14,2 C 1,0 km/h (0 Bft) 0,00 %
18.08.2015 04:00 13,8 C 92 % 1013,3 hPa 0,0 l/m 0,4 km/h (0 Bft) W 0,00 h 0,000 mm 0,0 UV-I 0 W/m 12,6 C 13,8 C 1,3 km/h (1 Bft) 0,00 %
18.08.2015 05:00 13,9 C 92 % 1013,3 hPa 0,0 l/m 0,1 km/h (0 Bft) N 0,00 h 0,000 mm 0,0 UV-I 0 W/m 12,7 C 13,9 C 0,3 km/h (0 Bft) 0,00 %
18.08.2015 06:00 14,1 C 91 % 1013,7 hPa 0,0 l/m 0,1 km/h (0 Bft) W-SW 0,00 h 0,000 mm 0,0 UV-I 17 W/m 12,7 C 14,1 C 0,7 km/h (0 Bft) 0,00 %
18.08.2015 07:00 14,6 C 90 % 1014,0 hPa 0,0 l/m 0,0 km/h (0 Bft) N 0,00 h 0,000 mm 1,0 UV-I 71 W/m 12,9 C 14,6 C 0,0 km/h (0 Bft) 0,00 %
18.08.2015 08:00 15,9 C 83 % 1014,3 hPa 0,0 l/m 0,4 km/h (0 Bft) W-SW 0,33 h 0,000 mm 1,0 UV-I 197 W/m 13,0 C 15,9 C 1,0 km/h (0 Bft) 0,00 %
18.08.2015 09:00 18,7 C 67 % 1014,5 hPa 0,0 l/m 0,9 km/h (0 Bft) N-NO 0,92 h 0,000 mm 1,5 UV-I 356 W/m 12,4 C 18,7 C 2,0 km/h (1 Bft) 0,00 %
18.08.2015 10:00 20,6 C 58 % 1014,6 hPa 0,0 l/m 1,1 km/h (0 Bft) NW 0,50 h 0,000 mm 1,7 UV-I 368 W/m 12,0 C 20,6 C 2,0 km/h (1 Bft) 0,00 %
18.08.2015 11:00 21,3 C 52 % 1014,5 hPa 0,0 l/m 0,2 km/h (0 Bft) W-NW 0,75 h 0,000 mm 2,5 UV-I 562 W/m 11,1 C 21,3 C 0,7 km/h (0 Bft) 0,00 %
18.08.2015 12:00 20,9 C 52 % 1014,5 hPa 0,0 l/m 0,5 km/h (0 Bft) SW 0,00 h 0,000 mm 1,5 UV-I 291 W/m 10,7 C 20,9 C 1,3 km/h (1 Bft) 0,00 %
18.08.2015 13:00 21,6 C 51 % 1014,4 hPa 0,0 l/m 0,5 km/h (0 Bft) NO 0,58 h 0,000 mm 1,9 UV-I 441 W/m 10,9 C 21,6 C 1,7 km/h (1 Bft) 0,00 %
18.08.2015 14:00 23,2 C 45 % 1014,2 hPa 0,0 l/m 0,7 km/h (0 Bft) N-NO 0,83 h 0,000 mm 2,9 UV-I 752 W/m 10,7 C 23,2 C 2,0 km/h (1 Bft) 0,00 %
18.08.2015 15:00 24,5 C 41 % 1014,1 hPa 0,0 l/m 0,8 km/h (0 Bft) NO 1,00 h 0,000 mm 2,4 UV-I 795 W/m 10,6 C 24,5 C 2,3 km/h (1 Bft) 0,00 %
18.08.2015 16:00 23,9 C 42 % 1014,0 hPa 0,0 l/m 0,3 km/h (0 Bft) NO 1,00 h 0,000 mm 1,0 UV-I 791 W/m 10,0 C 23,9 C 1,3 km/h (1 Bft) 0,00 %
18.08.2015 17:00 23,3 C 43 % 1014,0 hPa 0,0 l/m 1,1 km/h (0 Bft) NW 1,00 h 0,000 mm 1,0 UV-I 628 W/m 9,9 C 23,3 C 3,0 km/h (1 Bft) 0,00 %
18.08.2015 18:00 23,6 C 41 % 1014,1 hPa 0,0 l/m 0,1 km/h (0 Bft) N 1,00 h 0,000 mm 1,0 UV-I 466 W/m 9,6 C 23,6 C 0,7 km/h (0 Bft) 0,00 %
18.08.2015 19:00 21,9 C 47 % 1014,4 hPa 0,0 l/m 0,0 km/h (0 Bft) N 1,00 h 0,000 mm 0,0 UV-I 125 W/m 10,0 C 21,9 C 0,0 km/h (0 Bft) 0,00 %
18.08.2015 20:00 17,9 C 60 % 1014,9 hPa 0,0 l/m 0,0 km/h (0 Bft) N 0,00 h 0,000 mm 0,0 UV-I 3 W/m 10,0 C 17,9 C 0,0 km/h (0 Bft) 0,00 %
18.08.2015 21:00 15,5 C 72 % 1015,1 hPa 0,0 l/m 0,0 km/h (0 Bft) N 0,00 h 0,000 mm 0,0 UV-I 0 W/m 10,6 C 15,5 C 0,0 km/h (0 Bft) 0,00 %
18.08.2015 22:00 13,9 C 80 % 1015,4 hPa 0,0 l/m 0,0 km/h (0 Bft) N 0,00 h 0,000 mm 0,0 UV-I 0 W/m 10,6 C 13,9 C 0,0 km/h (0 Bft) 0,00 %
18.08.2015 23:00 13,0 C 84 % 1015,8 hPa 0,0 l/m 0,0 km/h (0 Bft) N 0,00 h 0,000 mm 0,0 UV-I 0 W/m 10,3 C 13,0 C 0,0 km/h (0 Bft) 0,00 %
19.08.2015 00:00 12,1 C 88 % 1016,2 hPa 0,0 l/m 0,0 km/h (0 Bft) N 0,00 h 0,000 mm 0,0 UV-I 0 W/m 10,2 C 12,1 C 0,0 km/h (0 Bft) 0,00 %
19.08.2015 01:00 11,2 C 92 % 1016,2 hPa 0,0 l/m 0,0 km/h (0 Bft) N 0,00 h 0,000 mm 0,0 UV-I 0 W/m 9,9 C 11,2 C 0,0 km/h (0 Bft) 0,00 %
19.08.2015 02:00 11,0 C 95 % 1016,4 hPa 0,0 l/m 0,0 km/h (0 Bft) N 0,00 h 0,000 mm 0,0 UV-I 0 W/m 10,2 C 11,0 C 0,0 km/h (0 Bft) 0,00 %
19.08.2015 03:00 10,7 C 97 % 1016,4 hPa 0,0 l/m 0,0 km/h (0 Bft) N 0,00 h 0,000 mm 0,0 UV-I 0 W/m 10,2 C 10,7 C 0,0 km/h (0 Bft) 0,00 %
19.08.2015 04:00 10,1 C 99 % 1016,2 hPa 0,0 l/m 0,0 km/h (0 Bft) N 0,00 h 0,000 mm 0,0 UV-I 0 W/m 9,8 C 10,1 C 0,0 km/h (0 Bft) 0,00 %
19.08.2015 05:00 10,0 C 98 % 1016,0 hPa 0,0 l/m 0,0 km/h (0 Bft) N 0,00 h 0,000 mm 0,0 UV-I 0 W/m 9,7 C 10,0 C 0,0 km/h (0 Bft) 0,00 %
19.08.2015 06:00 10,5 C 98 % 1016,2 hPa 0,0 l/m 0,0 km/h (0 Bft) N 0,33 h 0,000 mm 0,0 UV-I 34 W/m 10,2 C 10,5 C 0,0 km/h (0 Bft) 0,00 %
19.08.2015 07:00 12,0 C 96 % 1016,7 hPa 0,0 l/m 0,0 km/h (0 Bft) N 0,00 h 0,000 mm 1,0 UV-I 99 W/m 11,4 C 12,0 C 0,0 km/h (0 Bft) 0,00 %
19.08.2015 08:00 14,5 C 85 % 1016,7 hPa 0,0 l/m 0,0 km/h (0 Bft) N 0,00 h 0,000 mm 1,0 UV-I 173 W/m 11,9 C 14,5 C 0,0 km/h (0 Bft) 0,00 %
19.08.2015 09:00 18,2 C 67 % 1016,9 hPa 0,0 l/m 0,1 km/h (0 Bft) N 0,83 h 0,000 mm 1,4 UV-I 338 W/m 11,9 C 18,2 C 0,3 km/h (0 Bft) 0,00 %
19.08.2015 10:00 20,9 C 55 % 1017,1 hPa 0,0 l/m 0,0 km/h (0 Bft) N 0,58 h 0,000 mm 2,0 UV-I 418 W/m 11,5 C 20,9 C 0,0 km/h (0 Bft) 0,00 %
19.08.2015 11:00 21,1 C 53 % 1017,1 hPa 0,0 l/m 0,0 km/h (0 Bft) N 0,83 h 0,000 mm 2,5 UV-I 584 W/m 11,2 C 21,1 C 0,0 km/h (0 Bft) 0,00 %
19.08.2015 12:00 22,6 C 48 % 1016,8 hPa 0,0 l/m 0,0 km/h (0 Bft) N 0,75 h 0,000 mm 2,4 UV-I 534 W/m 10,9 C 22,6 C 0,0 km/h (0 Bft) 0,00 %
19.08.2015 13:00 22,6 C 45 % 1016,7 hPa 0,0 l/m 0,0 km/h (0 Bft) N 0,92 h 0,000 mm 2,5 UV-I 516 W/m 10,1 C 22,6 C 0,0 km/h (0 Bft) 0,00 %
19.08.2015 14:00 22,5 C 48 % 1016,7 hPa 0,0 l/m 1,4 km/h (1 Bft) W-SW 0,25 h 0,000 mm 1,3 UV-I 325 W/m 10,8 C 22,5 C 2,6 km/h (1 Bft) 0,00 %
19.08.2015 15:00 22,3 C 46 % 1016,7 hPa 0,0 l/m 0,3 km/h (0 Bft) W-SW 0,08 h 0,000 mm 1,5 UV-I 275 W/m 10,1 C 22,3 C 1,3 km/h (1 Bft) 0,00 %
19.08.2015 16:00 20,6 C 52 % 1016,7 hPa 0,0 l/m 0,4 km/h (0 Bft) O 0,00 h 0,000 mm 1,0 UV-I 105 W/m 10,4 C 20,6 C 1,3 km/h (1 Bft) 0,00 %
19.08.2015 17:00 19,1 C 59 % 1017,1 hPa 0,0 l/m 1,1 km/h (1 Bft) NO 0,00 h 0,000 mm 0,0 UV-I 77 W/m 10,8 C 19,1 C 2,7 km/h (1 Bft) 0,00 %
19.08.2015 18:00 17,9 C 67 % 1017,6 hPa 0,0 l/m 1,9 km/h (1 Bft) N-NO 0,00 h 0,000 mm 0,0 UV-I 63 W/m 11,7 C 17,9 C 4,3 km/h (1 Bft) 0,00 %
19.08.2015 19:00 17,1 C 73 % 1018,1 hPa 0,0 l/m 0,6 km/h (0 Bft) N 0,00 h 0,000 mm 0,0 UV-I 20 W/m 12,1 C 17,1 C 1,3 km/h (1 Bft) 0,00 %
19.08.2015 20:00 15,5 C 88 % 1018,9 hPa 0,9 l/m 0,0 km/h (0 Bft) N 0,00 h 0,000 mm 0,0 UV-I 0 W/m 13,5 C 15,5 C 0,3 km/h (0 Bft) 0,00 %
19.08.2015 21:00 14,7 C 95 % 1019,3 hPa 1,8 l/m 0,0 km/h (0 Bft) N 0,00 h 0,000 mm 0,0 UV-I 0 W/m 13,9 C 14,7 C 0,0 km/h (0 Bft) 0,00 %
19.08.2015 22:00 14,4 C 97 % 1019,6 hPa 0,9 l/m 0,1 km/h (0 Bft) N 0,00 h 0,000 mm 0,0 UV-I 0 W/m 13,8 C 14,4 C 0,7 km/h (0 Bft) 0,00 %
19.08.2015 23:00 14,1 C 97 % 1019,7 hPa 0,6 l/m 0,3 km/h (0 Bft) O 0,00 h 0,000 mm 0,0 UV-I 0 W/m 13,6 C 14,1 C 1,0 km/h (0 Bft) 0,00 %
20.08.2015 00:00 14,0 C 98 % 1020,0 hPa 0,0 l/m 0,0 km/h (0 Bft) N 0,00 h 0,000 mm 0,0 UV-I 0 W/m 13,7 C 14,0 C 0,0 km/h (0 Bft) 0,00 %
20.08.2015 01:00 14,1 C 98 % 1020,2 hPa 0,0 l/m 0,0 km/h (0 Bft) N 0,00 h 0,000 mm 0,0 UV-I 0 W/m 13,8 C 14,1 C 0,0 km/h (0 Bft) 0,00 %
20.08.2015 02:00 14,1 C 99 % 1020,3 hPa 0,0 l/m 0,0 km/h (0 Bft) N 0,00 h 0,000 mm 0,0 UV-I 0 W/m 14,0 C 14,1 C 0,0 km/h (0 Bft) 0,00 %
20.08.2015 03:00 14,2 C 99 % 1020,4 hPa 0,0 l/m 0,0 km/h (0 Bft) N 0,00 h 0,000 mm 0,0 UV-I 0 W/m 14,0 C 14,2 C 0,3 km/h (0 Bft) 0,00 %
20.08.2015 04:00 14,2 C 99 % 1020,4 hPa 0,0 l/m 0,1 km/h (0 Bft) N 0,00 h 0,000 mm 0,0 UV-I 0 W/m 14,1 C 14,2 C 0,7 km/h (0 Bft) 0,00 %
20.08.2015 05:00 14,2 C 99 % 1020,7 hPa 0,0 l/m 0,0 km/h (0 Bft) N 0,00 h 0,000 mm 0,0 UV-I 0 W/m 14,1 C 14,2 C 0,0 km/h (0 Bft) 0,00 %
20.08.2015 06:00 14,2 C 99 % 1021,2 hPa 0,0 l/m 0,0 km/h (0 Bft) N 0,00 h 0,000 mm 0,0 UV-I 7 W/m 14,1 C 14,2 C 0,0 km/h (0 Bft) 0,00 %
20.08.2015 07:00 14,2 C 99 % 1021,6 hPa 0,0 l/m 0,3 km/h (0 Bft) N 0,00 h 0,000 mm 0,0 UV-I 47 W/m 14,0 C 14,2 C 2,0 km/h (1 Bft) 0,00 %
20.08.2015 08:00 14,8 C 97 % 1022,1 hPa 0,0 l/m 0,8 km/h (0 Bft) W-SW 0,00 h 0,000 mm 1,0 UV-I 142 W/m 14,3 C 14,8 C 1,7 km/h (1 Bft) 0,00 %
20.08.2015 09:00 15,6 C 90 % 1022,5 hPa 0,0 l/m 0,6 km/h (0 Bft) W-SW 0,00 h 0,000 mm 1,0 UV-I 137 W/m 14,0 C 15,6 C 1,7 km/h (1 Bft) 0,00 %
20.08.2015 10:00 16,1 C 87 % 1022,8 hPa 0,0 l/m 1,0 km/h (0 Bft) W-SW 0,00 h 0,000 mm 1,0 UV-I 185 W/m 13,9 C 16,1 C 2,3 km/h (1 Bft) 0,00 %
20.08.2015 11:00 17,7 C 78 % 1022,9 hPa 0,0 l/m 0,9 km/h (0 Bft) W-NW 0,00 h 0,000 mm 1,7 UV-I 355 W/m 13,8 C 17,7 C 2,3 km/h (1 Bft) 0,00 %
20.08.2015 12:00 18,4 C 74 % 1023,0 hPa 0,0 l/m 1,1 km/h (1 Bft) W 0,00 h 0,000 mm 1,7 UV-I 353 W/m 13,8 C 18,4 C 3,3 km/h (1 Bft) 0,00 %
20.08.2015 13:00 18,8 C 72 % 1023,1 hPa 0,0 l/m 1,6 km/h (1 Bft) W-SW 0,00 h 0,000 mm 1,2 UV-I 304 W/m 13,6 C 18,8 C 3,3 km/h (1 Bft) 0,00 %
20.08.2015 14:00 19,6 C 66 % 1023,1 hPa 0,0 l/m 2,2 km/h (1 Bft) W-SW 0,10 h 0,000 mm 2,0 UV-I 385 W/m 13,1 C 19,5 C 4,6 km/h (1 Bft) 0,00 %
20.08.2015 15:00 19,4 C 66 % 1022,9 hPa 0,0 l/m 0,4 km/h (0 Bft) N-NO 0,00 h 0,000 mm 1,0 UV-I 227 W/m 12,9 C 19,4 C 1,7 km/h (1 Bft) 0,00 %
20.08.2015 16:00 19,6 C 67 % 1022,4 hPa 0,0 l/m 0,0 km/h (0 Bft) N 0,00 h 0,000 mm 1,0 UV-I 196 W/m 13,3 C 19,6 C 0,3 km/h (0 Bft) 0,00 %
20.08.2015 17:00 17,6 C 77 % 1022,6 hPa 1,2 l/m 0,6 km/h (0 Bft) NW 0,00 h 0,000 mm 0,0 UV-I 38 W/m 13,4 C 17,6 C 1,6 km/h (1 Bft) 0,00 %
20.08.2015 18:00 15,1 C 93 % 1022,8 hPa 3,3 l/m 0,0 km/h (0 Bft) N 0,00 h 0,000 mm 0,0 UV-I 28 W/m 14,0 C 15,1 C 0,0 km/h (0 Bft) 0,00 %
20.08.2015 19:00 15,1 C 95 % 1023,1 hPa 0,0 l/m 0,0 km/h (0 Bft) N 0,00 h 0,000 mm 0,0 UV-I 23 W/m 14,3 C 15,1 C 0,0 km/h (0 Bft) 0,00 %
20.08.2015 20:00 14,9 C 97 % 1023,6 hPa 0,0 l/m 0,0 km/h (0 Bft) N 0,00 h 0,000 mm 0,0 UV-I 0 W/m 14,5 C 14,9 C 0,0 km/h (0 Bft) 0,00 %
20.08.2015 21:00 14,5 C 99 % 1024,1 hPa 0,0 l/m 0,0 km/h (0 Bft) N 0,00 h 0,000 mm 0,0 UV-I 0 W/m 14,2 C 14,5 C 0,0 km/h (0 Bft) 0,00 %
20.08.2015 22:00 14,4 C 99 % 1024,3 hPa 0,0 l/m 0,0 km/h (0 Bft) N 0,00 h 0,000 mm 0,0 UV-I 0 W/m 14,3 C 14,4 C 0,0 km/h (0 Bft) 0,00 %
20.08.2015 23:00 14,0 C 99 % 1024,6 hPa 0,0 l/m 0,3 km/h (0 Bft) W-SW 0,00 h 0,000 mm 0,0 UV-I 0 W/m 13,9 C 14,0 C 0,3 km/h (0 Bft) 0,00 %
21.08.2015 00:00 13,6 C 99 % 1024,9 hPa 0,0 l/m 0,4 km/h (0 Bft) W-NW 0,00 h 0,000 mm 0,0 UV-I 0 W/m 13,4 C 13,6 C 1,7 km/h (1 Bft) 0,00 %
21.08.2015 01:00 13,4 C 97 % 1025,0 hPa 0,0 l/m 0,2 km/h (0 Bft) W-SW 0,00 h 0,000 mm 0,0 UV-I 0 W/m 13,0 C 13,4 C 1,0 km/h (0 Bft) 0,00 %
21.08.2015 02:00 13,5 C 97 % 1024,9 hPa 0,0 l/m 0,5 km/h (0 Bft) W-SW 0,00 h 0,000 mm 0,0 UV-I 0 W/m 13,0 C 13,5 C 2,0 km/h (1 Bft) 0,00 %
21.08.2015 03:00 13,4 C 98 % 1024,7 hPa 0,0 l/m 0,0 km/h (0 Bft) N 0,00 h 0,000 mm 0,0 UV-I 0 W/m 13,0 C 13,4 C 0,3 km/h (0 Bft) 0,00 %
21.08.2015 04:00 13,3 C 98 % 1024,6 hPa 0,0 l/m 0,0 km/h (0 Bft) N 0,00 h 0,000 mm 0,0 UV-I 0 W/m 13,0 C 13,3 C 0,0 km/h (0 Bft) 0,00 %
21.08.2015 05:00 13,5 C 99 % 1024,5 hPa 0,0 l/m 0,0 km/h (0 Bft) N 0,00 h 0,000 mm 0,0 UV-I 0 W/m 13,3 C 13,5 C 0,0 km/h (0 Bft) 0,00 %
21.08.2015 06:00 13,6 C 98 % 1024,8 hPa 0,0 l/m 0,0 km/h (0 Bft) N 0,00 h 0,000 mm 0,0 UV-I 9 W/m 13,3 C 13,6 C 0,0 km/h (0 Bft) 0,00 %
21.08.2015 07:00 13,9 C 96 % 1025,0 hPa 0,0 l/m 0,0 km/h (0 Bft) N 0,00 h 0,000 mm 0,0 UV-I 39 W/m 13,3 C 13,9 C 0,0 km/h (0 Bft) 0,00 %
21.08.2015 08:00 14,2 C 93 % 1025,2 hPa 0,0 l/m 0,0 km/h (0 Bft) N 0,00 h 0,000 mm 1,0 UV-I 109 W/m 13,2 C 14,2 C 0,3 km/h (0 Bft) 0,00 %
21.08.2015 09:00 15,7 C 85 % 1025,3 hPa 0,0 l/m 0,3 km/h (0 Bft) W 0,33 h 0,000 mm 1,0 UV-I 272 W/m 13,1 C 15,7 C 1,7 km/h (1 Bft) 0,00 %
21.08.2015 10:00 17,8 C 75 % 1025,4 hPa 0,0 l/m 0,7 km/h (0 Bft) W 0,00 h 0,000 mm 1,3 UV-I 298 W/m 13,2 C 17,8 C 1,7 km/h (1 Bft) 0,00 %
21.08.2015 11:00 19,3 C 68 % 1025,3 hPa 0,0 l/m 0,2 km/h (0 Bft) SO 0,33 h 0,000 mm 2,2 UV-I 419 W/m 13,2 C 19,3 C 0,7 km/h (0 Bft) 0,00 %
21.08.2015 12:00 20,2 C 63 % 1024,9 hPa 0,0 l/m 0,6 km/h (0 Bft) W-SW 0,17 h 0,000 mm 1,7 UV-I 364 W/m 12,9 C 20,2 C 1,7 km/h (1 Bft) 0,00 %
21.08.2015 13:00 19,2 C 67 % 1024,8 hPa 0,0 l/m 0,3 km/h (0 Bft) N 0,00 h 0,000 mm 1,3 UV-I 261 W/m 12,9 C 19,2 C 0,3 km/h (0 Bft) 0,00 %
21.08.2015 14:00 21,4 C 58 % 1024,4 hPa 0,0 l/m 0,0 km/h (0 Bft) N 0,17 h 0,000 mm 1,5 UV-I 351 W/m 12,7 C 21,4 C 0,3 km/h (0 Bft) 0,00 %
21.08.2015 15:00 21,5 C 53 % 1024,1 hPa 0,0 l/m 0,2 km/h (0 Bft) W 0,00 h 0,000 mm 1,5 UV-I 308 W/m 11,4 C 21,5 C 0,7 km/h (0 Bft) 0,00 %
21.08.2015 16:00 21,7 C 55 % 1023,9 hPa 0,0 l/m 0,3 km/h (0 Bft) W-NW 0,83 h 0,000 mm 1,3 UV-I 368 W/m 12,1 C 21,7 C 0,7 km/h (0 Bft) 0,00 %
21.08.2015 17:00 20,9 C 59 % 1023,7 hPa 0,0 l/m 0,0 km/h (0 Bft) N 0,08 h 0,000 mm 1,0 UV-I 187 W/m 12,6 C 20,9 C 0,0 km/h (0 Bft) 0,00 %
21.08.2015 18:00 19,3 C 64 % 1023,4 hPa 0,0 l/m 0,0 km/h (0 Bft) N 0,00 h 0,000 mm 1,0 UV-I 94 W/m 12,3 C 19,3 C 0,0 km/h (0 Bft) 0,00 %
21.08.2015 19:00 18,7 C 66 % 1023,4 hPa 0,0 l/m 0,0 km/h (0 Bft) N 0,33 h 0,000 mm 0,0 UV-I 46 W/m 12,2 C 18,7 C 0,0 km/h (0 Bft) 0,00 %
21.08.2015 20:00 17,1 C 76 % 1023,6 hPa 0,0 l/m 0,0 km/h (0 Bft) N 0,00 h 0,000 mm 0,0 UV-I 0 W/m 12,8 C 17,1 C 0,0 km/h (0 Bft) 0,00 %
21.08.2015 21:00 15,7 C 84 % 1023,7 hPa 0,0 l/m 0,0 km/h (0 Bft) N 0,00 h 0,000 mm 0,0 UV-I 0 W/m 13,0 C 15,7 C 0,0 km/h (0 Bft) 0,00 %
21.08.2015 22:00 14,5 C 90 % 1023,7 hPa 0,0 l/m 0,0 km/h (0 Bft) N 0,00 h 0,000 mm 0,0 UV-I 0 W/m 12,8 C 14,5 C 0,0 km/h (0 Bft) 0,00 %
21.08.2015 23:00 14,2 C 90 % 1023,4 hPa 0,0 l/m 0,0 km/h (0 Bft) N 0,00 h 0,000 mm 0,0 UV-I 0 W/m 12,6 C 14,2 C 0,0 km/h (0 Bft) 0,00 %
22.08.2015 00:00 13,5 C 93 % 1023,1 hPa 0,0 l/m 0,1 km/h (0 Bft) N 0,00 h 0,000 mm 0,0 UV-I 0 W/m 12,4 C 13,5 C 0,7 km/h (0 Bft) 0,00 %
22.08.2015 01:00 13,6 C 93 % 1022,9 hPa 0,0 l/m 0,0 km/h (0 Bft) N 0,00 h 0,000 mm 0,0 UV-I 0 W/m 12,4 C 13,6 C 0,0 km/h (0 Bft) 0,00 %
22.08.2015 02:00 13,2 C 93 % 1022,3 hPa 0,0 l/m 0,0 km/h (0 Bft) N 0,00 h 0,000 mm 0,0 UV-I 0 W/m 12,0 C 13,2 C 0,0 km/h (0 Bft) 0,00 %
22.08.2015 03:00 12,0 C 94 % 1022,0 hPa 0,0 l/m 0,0 km/h (0 Bft) N 0,00 h 0,000 mm 0,0 UV-I 0 W/m 11,1 C 12,0 C 0,0 km/h (0 Bft) 0,00 %
22.08.2015 04:00 10,6 C 97 % 1021,8 hPa 0,0 l/m 0,0 km/h (0 Bft) N 0,00 h 0,000 mm 0,0 UV-I 0 W/m 10,1 C 10,6 C 0,0 km/h (0 Bft) 0,00 %
22.08.2015 05:00 9,6 C 99 % 1021,8 hPa 0,0 l/m 0,0 km/h (0 Bft) N 0,00 h 0,000 mm 0,0 UV-I 0 W/m 9,5 C 9,6 C 0,0 km/h (0 Bft) 0,00 %
22.08.2015 06:00 9,4 C 99 % 1021,9 hPa 0,0 l/m 0,0 km/h (0 Bft) N 0,50 h 0,000 mm 0,0 UV-I 49 W/m 9,2 C 9,4 C 0,0 km/h (0 Bft) 0,00 %
22.08.2015 07:00 13,5 C 86 % 1022,0 hPa 0,0 l/m 0,0 km/h (0 Bft) N 1,00 h 0,000 mm 1,0 UV-I 148 W/m 11,1 C 13,5 C 0,0 km/h (0 Bft) 0,00 %
22.08.2015 08:00 18,5 C 65 % 1022,0 hPa 0,0 l/m 0,0 km/h (0 Bft) N 0,42 h 0,000 mm 1,0 UV-I 214 W/m 11,7 C 18,5 C 0,0 km/h (0 Bft) 0,00 %
22.08.2015 09:00 20,0 C 61 % 1021,6 hPa 0,0 l/m 0,4 km/h (0 Bft) O 0,92 h 0,000 mm 1,5 UV-I 310 W/m 12,2 C 20,0 C 1,3 km/h (1 Bft) 0,00 %
22.08.2015 10:00 21,3 C 54 % 1021,1 hPa 0,0 l/m 0,6 km/h (0 Bft) O 1,00 h 0,000 mm 2,0 UV-I 463 W/m 11,6 C 21,3 C 2,0 km/h (1 Bft) 0,00 %
22.08.2015 11:00 22,9 C 50 % 1020,7 hPa 0,0 l/m 0,9 km/h (0 Bft) O-SO 1,00 h 0,000 mm 3,0 UV-I 617 W/m 11,8 C 22,9 C 2,3 km/h (1 Bft) 0,00 %
22.08.2015 12:00 23,0 C 45 % 1020,3 hPa 0,0 l/m 4,4 km/h (1 Bft) O-NO 1,00 h 0,000 mm 3,5 UV-I 720 W/m 10,3 C 23,0 C 6,9 km/h (2 Bft) 0,00 %
22.08.2015 13:00 23,8 C 35 % 1019,8 hPa 0,0 l/m 1,7 km/h (1 Bft) O-NO 1,00 h 0,000 mm 3,8 UV-I 784 W/m 7,2 C 23,8 C 4,0 km/h (1 Bft) 0,00 %
22.08.2015 14:00 24,4 C 29 % 1019,2 hPa 0,0 l/m 2,1 km/h (1 Bft) O-SO 1,00 h 0,000 mm 3,0 UV-I 808 W/m 5,3 C 24,4 C 3,6 km/h (1 Bft) 0,00 %
22.08.2015 15:00 25,0 C 29 % 1018,9 hPa 0,0 l/m 1,7 km/h (1 Bft) O-NO 0,92 h 0,000 mm 2,2 UV-I 753 W/m 5,8 C 24,9 C 3,3 km/h (1 Bft) 0,00 %
22.08.2015 16:00 24,0 C 33 % 1018,4 hPa 0,0 l/m 3,6 km/h (1 Bft) O 1,00 h 0,000 mm 1,0 UV-I 720 W/m 6,5 C 23,9 C 6,3 km/h (2 Bft) 0,00 %
22.08.2015 17:00 23,7 C 32 % 1018,0 hPa 0,0 l/m 1,9 km/h (1 Bft) O-NO 0,77 h 0,000 mm 1,0 UV-I 528 W/m 6,1 C 23,7 C 3,6 km/h (1 Bft) 0,00 %
22.08.2015 18:00 23,0 C 36 % 1017,6 hPa 0,0 l/m 2,0 km/h (1 Bft) NO 1,00 h 0,000 mm 1,0 UV-I 390 W/m 6,9 C 23,0 C 4,6 km/h (1 Bft) 0,00 %
22.08.2015 19:00 21,0 C 44 % 1017,5 hPa 0,0 l/m 0,3 km/h (0 Bft) NO 0,92 h 0,000 mm 0,0 UV-I 93 W/m 8,0 C 21,0 C 1,0 km/h (0 Bft) 0,00 %
22.08.2015 20:00 17,9 C 56 % 1017,4 hPa 0,0 l/m 0,6 km/h (0 Bft) O 0,00 h 0,000 mm 0,0 UV-I 0 W/m 9,1 C 17,9 C 1,3 km/h (1 Bft) 0,00 %
22.08.2015 21:00 16,7 C 59 % 1017,3 hPa 0,0 l/m 1,5 km/h (1 Bft) O-SO 0,00 h 0,000 mm 0,0 UV-I 0 W/m 8,6 C 16,7 C 3,3 km/h (1 Bft) 0,00 %
22.08.2015 22:00 15,5 C 64 % 1017,1 hPa 0,0 l/m 0,3 km/h (0 Bft) SO 0,00 h 0,000 mm 0,0 UV-I 0 W/m 8,7 C 15,5 C 1,3 km/h (1 Bft) 0,00 %
22.08.2015 23:00 13,7 C 72 % 1016,7 hPa 0,0 l/m 0,4 km/h (0 Bft) O 0,00 h 0,000 mm 0,0 UV-I 0 W/m 8,7 C 13,7 C 2,0 km/h (1 Bft) 0,00 %
23.08.2015 00:00 12,8 C 75 % 1016,1 hPa 0,0 l/m 0,2 km/h (0 Bft) O 0,00 h 0,000 mm 0,0 UV-I 0 W/m 8,5 C 12,8 C 1,0 km/h (0 Bft) 0,00 %
23.08.2015 01:00 12,3 C 77 % 1015,4 hPa 0,0 l/m 0,2 km/h (0 Bft) O 0,00 h 0,000 mm 0,0 UV-I 0 W/m 8,4 C 12,3 C 1,0 km/h (0 Bft) 0,00 %
23.08.2015 02:00 12,0 C 79 % 1014,7 hPa 0,0 l/m 0,7 km/h (0 Bft) O 0,00 h 0,000 mm 0,0 UV-I 0 W/m 8,5 C 12,0 C 2,3 km/h (1 Bft) 0,00 %
23.08.2015 03:00 11,6 C 82 % 1014,2 hPa 0,0 l/m 0,3 km/h (0 Bft) O-SO 0,00 h 0,000 mm 0,0 UV-I 0 W/m 8,6 C 11,6 C 1,0 km/h (0 Bft) 0,00 %
23.08.2015 04:00 10,9 C 87 % 1013,8 hPa 0,0 l/m 0,4 km/h (0 Bft) O-NO 0,00 h 0,000 mm 0,0 UV-I 0 W/m 8,8 C 10,9 C 1,3 km/h (1 Bft) 0,00 %
23.08.2015 05:00 10,8 C 89 % 1013,3 hPa 0,0 l/m 0,5 km/h (0 Bft) SO 0,00 h 0,000 mm 0,0 UV-I 0 W/m 9,0 C 10,8 C 1,7 km/h (1 Bft) 0,00 %
23.08.2015 06:00 11,1 C 88 % 1013,0 hPa 0,0 l/m 0,6 km/h (0 Bft) O-SO 0,67 h 0,000 mm 0,0 UV-I 58 W/m 9,3 C 11,1 C 2,0 km/h (1 Bft) 0,00 %
23.08.2015 07:00 14,1 C 76 % 1012,9 hPa 0,0 l/m 2,3 km/h (1 Bft) O-NO 0,83 h 0,000 mm 1,0 UV-I 150 W/m 9,9 C 14,1 C 5,0 km/h (1 Bft) 0,00 %
23.08.2015 08:00 16,1 C 68 % 1012,6 hPa 0,0 l/m 6,0 km/h (2 Bft) O-SO 0,00 h 0,000 mm 1,0 UV-I 201 W/m 10,2 C 15,7 C 9,6 km/h (2 Bft) 0,00 %
23.08.2015 09:00 18,2 C 61 % 1012,3 hPa 0,0 l/m 5,3 km/h (1 Bft) O-SO 0,50 h 0,000 mm 1,4 UV-I 284 W/m 10,6 C 17,8 C 9,2 km/h (2 Bft) 0,00 %
23.08.2015 10:00 20,3 C 54 % 1011,7 hPa 0,0 l/m 5,2 km/h (1 Bft) O-NO 0,93 h 0,000 mm 2,0 UV-I 453 W/m 10,5 C 20,0 C 9,4 km/h (2 Bft) 0,00 %
23.08.2015 11:00 22,3 C 48 % 1011,2 hPa 0,0 l/m 3,3 km/h (1 Bft) O 1,00 h 0,000 mm 3,0 UV-I 609 W/m 10,8 C 22,3 C 6,0 km/h (2 Bft) 0,00 %
23.08.2015 12:00 23,5 C 45 % 1010,6 hPa 0,0 l/m 4,9 km/h (1 Bft) O 1,00 h 0,000 mm 3,5 UV-I 726 W/m 11,0 C 23,3 C 8,2 km/h (2 Bft) 0,00 %
23.08.2015 13:00 24,3 C 43 % 1010,2 hPa 0,0 l/m 6,1 km/h (2 Bft) O-NO 0,92 h 0,000 mm 3,5 UV-I 716 W/m 10,9 C 24,0 C 9,2 km/h (2 Bft) 0,00 %
23.08.2015 14:00 25,4 C 40 % 1009,6 hPa 0,0 l/m 6,1 km/h (2 Bft) O 1,00 h 0,000 mm 3,1 UV-I 834 W/m 10,9 C 25,1 C 9,6 km/h (2 Bft) 0,00 %
23.08.2015 15:00 26,0 C 39 % 1009,0 hPa 0,0 l/m 7,1 km/h (2 Bft) O 1,00 h 0,000 mm 1,9 UV-I 825 W/m 10,9 C 25,7 C 11,5 km/h (2 Bft) 0,00 %
23.08.2015 16:00 26,2 C 38 % 1008,7 hPa 0,0 l/m 5,5 km/h (1 Bft) O 1,00 h 0,000 mm 1,0 UV-I 729 W/m 10,8 C 26,1 C 8,6 km/h (2 Bft) 0,00 %
23.08.2015 17:00 26,2 C 37 % 1008,3 hPa 0,0 l/m 5,3 km/h (1 Bft) O-SO 0,75 h 0,000 mm 1,0 UV-I 557 W/m 10,3 C 25,9 C 8,3 km/h (2 Bft) 0,00 %
23.08.2015 18:00 25,1 C 39 % 1008,0 hPa 0,0 l/m 1,9 km/h (1 Bft) NO 1,00 h 0,000 mm 1,0 UV-I 496 W/m 10,1 C 25,0 C 3,7 km/h (1 Bft) 0,00 %
23.08.2015 19:00 23,3 C 45 % 1007,8 hPa 0,0 l/m 0,6 km/h (0 Bft) NO 0,75 h 0,000 mm 0,0 UV-I 132 W/m 10,7 C 23,3 C 1,7 km/h (1 Bft) 0,00 %
23.08.2015 20:00 20,0 C 58 % 1008,1 hPa 0,0 l/m 0,0 km/h (0 Bft) O-SO 0,00 h 0,000 mm 0,0 UV-I 0 W/m 11,5 C 20,0 C 0,0 km/h (0 Bft) 0,00 %
23.08.2015 21:00 18,9 C 61 % 1008,4 hPa 0,0 l/m 0,2 km/h (0 Bft) N 0,00 h 0,000 mm 0,0 UV-I 0 W/m 11,2 C 18,9 C 0,7 km/h (0 Bft) 0,00 %
23.08.2015 22:00 17,9 C 64 % 1008,4 hPa 0,0 l/m 1,0 km/h (0 Bft) O-SO 0,00 h 0,000 mm 0,0 UV-I 0 W/m 10,9 C 17,9 C 2,0 km/h (1 Bft) 0,00 %
23.08.2015 23:00 17,0 C 67 % 1008,8 hPa 0,0 l/m 0,0 km/h (0 Bft) N 0,00 h 0,000 mm 0,0 UV-I 0 W/m 10,7 C 17,0 C 0,0 km/h (0 Bft) 0,00 %
Min-Datum _ 22.08.15 22.08.15 23.08.15 - 17.08.15 - - - - - 22.08.15 22.08.15 17.08.15 17.08.15
_ Min-Zeit 06:18 14:58 18:50 - 00:14 - - - - - 14:58 06:18 00:14 00:04
Minimum _ 9,0 C 25 % 1007,7 hPa - 0,0 km/h (0 Bft) - - - - - 3,3 C 9,0 C 0,0 km/h (0 Bft) 0,00 %
Max-Datum _ 23.08.15 17.08.15 21.08.15 20.08.15 23.08.15 - 20.08.15 17.08.15 18.08.15 18.08.15 17.08.15 23.08.15 23.08.15 17.08.15
_ Max-Zeit 17:35 07:34 10:27 18:01 14:50 - 14:56 00:04 14:03 15:28 09:24 17:35 14:50 00:04
Maximum _ 26,5 C 99 % 1025,5 hPa 3,3 l/m 18,4 km/h
O (3 Bft)
- 0,10 h 0,000 mm 4,0 UV-I 987 W/m 15,0 C 26,5 C 24,1 km/h
O (4 Bft)
0,00 %
Durchschnitt _ 17,0 C 75 % 1017,1 hPa #18,6 l/m 1,0 km/h (0 Bft) W-SW #39:43 h #0,000 mm 1,6 UV-I 308 W/m 11,8 C 17,0 C 2,0 km/h (1 Bft) 0,00 %